Member area
Imprimable
Challenges > Delhalle - Dinant, 27/08/2017, BEL - La Descente de la Lesse
List of reports > 12km - Result
Search: Page: [1]
85 Entries
 
Complains are not accepted anymore. Results are final.
PlaceNrNameAgeNATLeagueTeamRealTimeTkmMoy.ScrCity
1.9204FBIHAIN AMÉLIE28BELARCH49:0449:044:06 14.6816THEUX
2.8706FMEDAETS ALIZEE23BELCSFET ENGHIEN55:0155:014:36 13.0942ENGHIEN
3.8602FSCHUMACHER LAURA21NLDTARTLETOS57:0057:004:45 12.6357WAGENINGEN
4.8644FMELARD AURELIE29BEL1:01:091:01:095:06 11.7888DORINNE
5.8639FAERTS SOPHIE25BELARCH1:02:551:02:555:15 11.45100CELLES
6.8707FBOULA MALIKA31BELGO FITNESS1:04:241:04:245:22 11.18115DINANT
7.9231FBIALESCHKI CHATTY39USA1:04:421:04:425:24 11.13121IXELLES
8.8637FCEINOS MANON28BELARCH1:04:501:04:505:25 11.11124HOUYET
9.8743FMERTENS FIONA21BELCAP BEAURAING1:05:051:05:055:26 11.06127FROIDFONTAINE
10.9228FKINET VIRGINIE36BEL1:05:141:05:145:27 11.04128ÉGHEZÉE
11.9175FHOLVOET MARIE34BEL1:06:251:06:255:33 10.84141NAMUR
12.8571FEVRARD PAULINE36BEL1:06:371:06:375:34 10.81144CHEVETOGNE
13.8730FSAMAIN VÉRONIQUE37BELARCH1:07:241:07:245:37 10.68149CINEY
14.9156FDAFFE VALENTINE33BELARCH1:07:241:07:245:37 10.68150X
15.8731FSAMAIN CLAIRE36BELARCH1:07:461:07:465:39 10.63154GIVET
16.8963FCHEFFERT MARION29BEL1:08:481:08:485:44 10.47161PROFONDEVILLE
17.8550FDASNOIS MANON21BEL1:09:011:09:015:46 10.43165LISOGNE
18.9098FCAPPELLEN MARINE27BEL1:09:501:09:505:50 10.31173MONT-SAINT-GUIBERT
19.9078FMATERNE JUSTINE32BELARCH1:09:531:09:535:50 10.30174BRAIBANT
20.8930FSIMON NATHALIE37BELZATAC1:09:571:09:575:50 10.29175NAMUR
21.9097FCAPPELLEN VIOLAINE30BELSTIMULUS1:10:171:10:175:52 10.25176MONT-SAINT-GUIBERT
22.8957FDEWINTER ANNE36BELARCH1:10:211:10:215:52 10.24178SCHALTIN
23.9227FICKET ELODIE28BELARCH1:10:301:10:305:53 10.21184PESSOUX
24.8549FBAUDOIN DAPHNE36BEL1:12:041:12:046:01 9.99208LISOGNE
25.9107FCOOREMANS CHARLOTTE21BEL1:12:351:12:356:03 9.92214SOYE
26.9095FMACORS DELILAH29BEL1:12:491:12:496:05 9.89218CINEY
27.8967FRUELLE BENEDICTE35BEL1:13:081:13:086:06 9.85223GESVES
28.9122FRHAINOTTE AMÉLIE35BELARCH1:13:111:13:116:06 9.84225COURRIÈRE
29.9137FDERAVET AURORE26BEL1:13:131:13:136:07 9.84226DINANT
30.8945FPITZ AUDREY27BEL1:13:311:13:316:08 9.79234OLNE
31.8520FBULTOT ELODIE31BEL1:15:581:15:586:20 9.48257LUSTIN
32.8642FEMPILIUS MARIE34BEL1:16:031:16:036:21 9.47259FALMAGNE
33.8960FWARZEE EMILIE32BEL1:16:171:16:176:22 9.44261FLOREE
34.8958FDELOBBE LISELOTTE31BEL1:16:411:16:416:24 9.39267FLOREE
35.9143FDAVE ANGELIQUE27BELARCH1:17:061:17:066:26 9.34273SOVET
36.8567FDUMONCEAU HÉLÈNE27BEL1:17:101:17:106:26 9.33275UCCLE
37.8972FLAGARDE DOMITILLE30FRA1:17:151:17:156:27 9.32277NAMUR
38.9161FDRUGMAND ELOISE36BELESM1:17:151:17:156:27 9.32278MONT-SUR-MARCHIENNE
39.8631FCLAUDE JULIE36BELARCH1:17:251:17:256:28 9.30279CINEY
40.8630FVANLIERDE CELINE38BEL1:17:291:17:296:28 9.29281FLOSTOY
41.8647FVERRECKT EMILIE37BEL1:17:341:17:346:28 9.28283MEHAIGNE
42.8641FDEMARCIN CÉLINE33BEL1:17:381:17:386:29 9.28286SORINNES
43.8601FVAN GAANS ANOUK22NLD1:17:531:17:536:30 9.24288ZEIST
44.8634FMICHAUX CATHERINE38BELARCH1:18:001:18:006:30 9.23290SCHALTIN
45.8749FARNOULD DELPHINE32BELARCH1:18:001:18:006:30 9.23291HAMOIS
46.8748FARNOULD CINDY36BEL1:18:011:18:016:31 9.23292HALLOY
47.9114FDETRY DELPHINE27BELJOGGANS1:18:411:18:416:34 9.15305BRUXELLES
48.8725FGRÉGOIRE CHARLÈNE30BELRCNAMUR1:20:031:20:036:41 9.00317LOYERS
49.9163FFLAHAUX ANNE37BEL1:20:031:20:036:41 9.00318JAMBES
50.9138FMARTEAU DESPONTIN KRYSTELLE33BELARCH1:20:411:20:416:44 8.92323HAMOIS
51.8533FDEPREZ INE29BEL1:20:481:20:486:44 8.91327ZERKEGEM
52.8712FCOBUT AMÉLIE35BEL1:21:131:21:136:47 8.87334NAMUR
53.8572FBROSTEAUX MARIE36BELZATAC1:21:261:21:266:48 8.84336TEMPLOUX
54.8649FDEMEURE NOELIE35BEL1:21:381:21:386:49 8.82338SORINNE LA LONGUE
55.9185FDARDENNE CATHERINE37BEL1:22:081:22:086:51 8.77343EGHEZEE
56.9188FCRAHAY VINCIANE39BELLES FRELONS1:22:161:22:166:52 8.75346WANZE
57.9120FVERJANS SARAH35BEL1:22:171:22:176:52 8.75347MARCHIN
58.4406FDUPONT PAULINE27BEL1:22:221:22:226:52 8.74350ROCHEFORT
59.8653FDAVE BÉNÉDICTE33BEL1:22:371:22:376:54 8.72353CELLES
60.8648FTASIAUX MARIANNE36BEL1:22:551:22:556:55 8.69357SORINNE-LA-LONGUE
61.9174FWATTECAMPS GWENNAELLE35BEL1:23:161:23:166:57 8.65360FLOREFFE
62.8942FPLUMHANS LUDIVINE24BEL1:23:241:23:246:57 8.63362CLERMONT
63.9128FDANDOY BENEDICTE38BELWEPHALAGE1:23:501:23:507:00 8.59363WEPION
64.8526FHUBERTY SOPHIE38BEL1:24:111:24:117:01 8.55366MOHIVILLE
65.8558FMOINY CANDY25BEL1:24:171:24:177:02 8.54370ACHÊNE
66.8936FSTOUFFS VALENTINE26BEL1:25:121:25:127:06 8.45378EMPTINNE
67.9124FGHYS VALERIE36BELZÉVILU1:26:211:26:217:12 8.34385CINEY
68.8636FWILMET CAROLINE34BELARCH1:26:331:26:337:13 8.32386SCHALTIN
69.8594FBAEKEN MARIE-JULIE36BEL1:27:201:27:207:17 8.24396DINANT
70.8595FLECLERE CAROLINE38BEL1:27:201:27:207:17 8.24397DRÉHANCE
71.8547FLAROCHE CHARLOTTE38BEL1:27:471:27:477:19 8.20408LEIGNON
72.9197FDEOM VANESSA38BEL1:28:251:28:257:23 8.14412MUSSON
73.9245FARNOULD AURORE34BELARCH1:28:321:28:327:23 8.13414CINEY
74.8658FLAMBERT MARLÈNE36BELARCH1:28:521:28:527:25 8.10418HAMOIS
75.9193FBATTAILE MARIE LAURE39BEL1:29:211:29:217:27 8.06422BRUXELLES
76.8961FBERTRAND LAURE39BEL1:29:211:29:217:27 8.06423WALHAIN
77.8693FDE VLIES EVA30BELJC GRIMBERGEN1:29:461:29:467:29 8.02424S
78.8536FBOONE/ EMBRECHTS MARIE31BELBOONE TEAM1:30:051:30:057:31 7.99426FALMAGNE
79.8694FLIBANJE ALINE37BEL1:31:451:31:457:39 7.85435LE ROEULX
80.9117FMERTENS CÉLINE35BEL1:37:061:37:068:06 7.42452ANDENNE
81.8677FBAYET KAVITHA27BEL1:38:551:38:558:15 7.28456DINANT
82.8982FSCHOONJANS GERALDINE25BEL1:43:491:43:498:40 6.94460NAMUR
83.8941FLEFEBVRE MARINE26BELKPK TEAM1:44:431:44:438:44 6.88461BRUXELLES
84.8617FRENIER OCEANE21BEL1:59:201:59:209:57 6.03462DINANT
85.8983FHENRIOUL MAUD22BEL2:00:292:00:2910:03 5.98464FALISOLLE
DNF: did not finish; DSQ: disqualified; Speed in km/h
Page: [1]